createdAt,value
2022-08-02T00:03:28.305Z,3.70
2022-08-02T00:08:30.937Z,3.63
2022-08-02T00:13:33.625Z,3.90
2022-08-02T00:18:36.152Z,3.30
2022-08-02T00:24:27.793Z,3.27
2022-08-02T00:29:01.787Z,3.47
2022-08-02T00:34:29.120Z,3.47
2022-08-02T00:39:33.547Z,3.37
2022-08-02T00:44:38.118Z,3.47
2022-08-02T00:49:40.802Z,3.67
2022-08-02T00:54:43.461Z,3.63
2022-08-02T00:59:46.042Z,3.37
2022-08-02T01:04:48.611Z,3.13
2022-08-02T01:09:51.198Z,3.33
2022-08-02T01:14:56.611Z,3.40
2022-08-02T01:20:10.798Z,3.00
2022-08-02T01:25:37.570Z,3.43
2022-08-02T01:30:43.197Z,3.17
2022-08-02T01:35:54.005Z,3.53
2022-08-02T01:40:58.778Z,3.87
2022-08-02T01:46:02.035Z,3.30
2022-08-02T01:51:06.284Z,3.37
2022-08-02T01:56:11.022Z,3.30
2022-08-02T02:01:15.265Z,3.80
2022-08-02T02:06:24.093Z,3.50
2022-08-02T02:12:12.001Z,3.80
2022-08-02T02:16:49.868Z,3.30
2022-08-02T02:21:52.990Z,3.10
2022-08-02T02:27:00.090Z,3.37
2022-08-02T02:32:06.715Z,3.13
2022-08-02T02:37:17.748Z,3.00
2022-08-02T02:42:25.111Z,3.10
2022-08-02T02:47:40.743Z,2.80
2022-08-02T02:52:44.355Z,2.90
2022-08-02T02:57:47.809Z,2.90
2022-08-02T03:02:51.050Z,3.17
2022-08-02T03:07:54.407Z,2.97
2022-08-02T03:12:58.673Z,3.00
2022-08-02T03:18:01.234Z,3.27
2022-08-02T03:23:03.786Z,3.57
2022-08-02T03:28:06.295Z,3.40
2022-08-02T03:33:09.403Z,3.57
2022-08-02T03:38:14.065Z,3.80
2022-08-02T03:43:17.197Z,3.77
2022-08-02T03:48:30.489Z,4.30
2022-08-02T03:53:37.565Z,4.33
2022-08-02T03:58:40.063Z,3.97
2022-08-02T04:03:42.541Z,4.07
2022-08-02T04:08:45.093Z,4.20
2022-08-02T04:13:47.806Z,3.70
2022-08-02T04:18:56.847Z,4.23
2022-08-02T04:24:00.791Z,4.40
2022-08-02T04:29:04.114Z,4.43
2022-08-02T04:34:07.081Z,4.83
2022-08-02T04:39:09.792Z,4.90
2022-08-02T04:44:13.287Z,5.40
2022-08-02T04:49:15.983Z,6.20
2022-08-02T04:54:18.658Z,4.97
2022-08-02T04:59:21.401Z,5.70
2022-08-02T05:04:23.946Z,5.10
2022-08-02T05:09:26.502Z,5.23
2022-08-02T05:14:29.065Z,4.43
2022-08-02T05:19:31.754Z,5.07
2022-08-02T05:24:34.527Z,4.77
2022-08-02T05:29:37.062Z,4.63
2022-08-02T05:34:39.595Z,4.30
2022-08-02T05:39:55.676Z,4.00
2022-08-02T05:45:01.725Z,4.20
2022-08-02T05:50:06.669Z,3.87
2022-08-02T05:55:21.807Z,4.43
2022-08-02T06:00:26.432Z,3.80
2022-08-02T06:05:49.470Z,3.90
2022-08-02T06:10:57.879Z,3.10
2022-08-02T06:16:01.685Z,3.10
2022-08-02T06:22:31.297Z,2.80
2022-08-02T06:26:32.583Z,4.57
2022-08-02T06:31:36.899Z,2.97
2022-08-02T06:37:19.486Z,2.90
2022-08-02T06:42:29.702Z,3.10
2022-08-02T06:47:32.501Z,2.50
2022-08-02T06:52:35.905Z,2.67
2022-08-02T06:57:38.603Z,1.97
2022-08-02T07:02:41.417Z,2.43
2022-08-02T07:07:44.095Z,2.40
2022-08-02T07:12:46.725Z,2.27
2022-08-02T07:17:49.331Z,1.80
2022-08-02T07:22:52.021Z,1.93
2022-08-02T07:27:54.660Z,1.40
2022-08-02T07:33:01.914Z,2.00
2022-08-02T07:38:04.655Z,1.57
2022-08-02T07:43:07.892Z,1.50
2022-08-02T07:48:11.292Z,1.40
2022-08-02T07:53:14.064Z,1.63
2022-08-02T07:58:16.896Z,1.10
2022-08-02T08:03:19.715Z,1.70
2022-08-02T08:08:22.242Z,1.50
2022-08-02T08:13:24.737Z,2.00
2022-08-02T08:18:27.317Z,1.30
2022-08-02T08:23:29.895Z,1.80
2022-08-02T08:28:32.390Z,1.33
2022-08-02T08:33:34.962Z,1.77
2022-08-02T08:38:37.462Z,1.40
2022-08-02T08:43:40.025Z,1.17
2022-08-02T08:48:46.593Z,1.17
2022-08-02T08:53:52.837Z,1.20
2022-08-02T08:58:55.432Z,1.10
2022-08-02T09:03:58.519Z,1.10
2022-08-02T09:09:00.999Z,1.40
2022-08-02T09:14:05.034Z,1.70
2022-08-02T09:19:27.449Z,2.53
2022-08-02T09:24:31.633Z,1.43
2022-08-02T09:29:48.630Z,1.10
2022-08-02T09:34:59.007Z,1.20
2022-08-02T09:40:03.343Z,1.40
2022-08-02T09:45:06.419Z,1.27
2022-08-02T09:50:14.927Z,1.40
2022-08-02T09:55:17.916Z,1.17
2022-08-02T10:00:37.057Z,1.20
2022-08-02T10:05:56.254Z,1.00
2022-08-02T10:11:04.857Z,1.20
2022-08-02T10:16:07.481Z,1.00
2022-08-02T10:21:34.685Z,1.37
2022-08-02T10:26:40.863Z,1.13
2022-08-02T10:31:57.508Z,1.30
2022-08-02T10:37:06.637Z,1.13
2022-08-02T10:42:10.550Z,1.50
2022-08-02T10:47:20.714Z,1.40
2022-08-02T10:52:28.596Z,1.40
2022-08-02T10:57:36.573Z,1.60
2022-08-02T11:02:39.196Z,1.20
2022-08-02T11:07:50.119Z,1.00
2022-08-02T11:13:14.713Z,1.17
2022-08-02T11:18:17.458Z,1.40
2022-08-02T11:23:44.950Z,1.53
2022-08-02T11:28:51.334Z,1.07
2022-08-02T11:33:54.699Z,1.30
2022-08-02T11:39:11.066Z,1.30
2022-08-02T11:44:13.600Z,1.00
2022-08-02T11:49:18.766Z,1.20
2022-08-02T11:54:26.597Z,1.57
2022-08-02T11:59:29.111Z,1.10
2022-08-02T12:04:31.747Z,1.33
2022-08-02T12:09:40.900Z,1.08
2022-08-02T12:14:45.432Z,1.02
2022-08-02T12:19:48.690Z,1.52
2022-08-02T12:24:53.677Z,1.52
2022-08-02T12:30:02.675Z,1.30
2022-08-02T12:35:12.823Z,1.60
2022-08-02T12:40:25.034Z,1.58
2022-08-02T12:45:41.949Z,1.33
2022-08-02T12:50:45.428Z,1.33
2022-08-02T12:56:02.419Z,1.10
2022-08-02T13:01:06.125Z,1.45
2022-08-02T13:06:32.223Z,1.30
2022-08-02T13:11:31.135Z,1.30
2022-08-02T13:16:34.450Z,1.60
2022-08-02T13:21:41.709Z,1.40
2022-08-02T13:26:59.604Z,1.30
2022-08-02T13:32:07.330Z,1.40
2022-08-02T13:37:09.833Z,1.30
2022-08-02T13:42:16.709Z,1.50
2022-08-02T13:47:26.718Z,1.80
2022-08-02T13:52:39.063Z,1.30
2022-08-02T13:57:41.599Z,1.40
2022-08-02T14:02:44.125Z,1.60
2022-08-02T14:07:46.685Z,1.25
2022-08-02T14:12:49.196Z,1.25
2022-08-02T14:17:59.219Z,1.75
2022-08-02T14:23:01.717Z,1.80
2022-08-02T14:28:04.800Z,1.80
2022-08-02T14:33:07.531Z,1.95
2022-08-02T14:38:10.556Z,1.70
2022-08-02T14:43:33.070Z,1.52
2022-08-02T14:48:35.639Z,1.65
2022-08-02T14:53:49.449Z,1.40
2022-08-02T14:59:00.956Z,1.60
2022-08-02T15:04:03.599Z,1.95
2022-08-02T15:09:06.165Z,1.60
2022-08-02T15:14:08.646Z,1.50
2022-08-02T15:19:11.182Z,1.48
2022-08-02T15:24:13.765Z,1.63
2022-08-02T15:29:16.953Z,1.58
2022-08-02T15:34:19.480Z,1.45
2022-08-02T15:39:21.961Z,1.50
2022-08-02T15:44:25.174Z,1.33
2022-08-02T15:49:27.807Z,1.60
2022-08-02T15:54:30.626Z,1.40
2022-08-02T15:59:34.348Z,1.30
2022-08-02T16:04:36.974Z,1.13
2022-08-02T16:09:39.632Z,1.48
2022-08-02T16:14:42.143Z,1.25
2022-08-02T16:19:49.212Z,1.42
2022-08-02T16:24:52.986Z,1.23
2022-08-02T16:29:55.565Z,1.58
2022-08-02T16:35:08.030Z,1.50
2022-08-02T16:40:13.336Z,1.50
2022-08-02T16:45:15.843Z,1.50
2022-08-02T16:50:28.292Z,1.80
2022-08-02T16:55:31.444Z,1.20
2022-08-02T17:00:34.133Z,1.55
2022-08-02T17:05:56.002Z,1.95
2022-08-02T17:21:45.021Z,3.58
2022-08-02T17:26:47.563Z,2.45
2022-08-02T17:32:12.045Z,2.25
2022-08-02T17:37:14.666Z,2.10
2022-08-02T17:42:19.946Z,8.93
2022-08-02T17:47:23.846Z,3.33
2022-08-02T17:52:51.107Z,2.40
2022-08-02T17:57:58.601Z,2.87
2022-08-02T18:03:06.104Z,9.00
2022-08-02T18:08:25.023Z,4.10
2022-08-02T18:13:32.753Z,2.63
2022-08-02T18:18:35.753Z,2.70
2022-08-02T18:23:44.214Z,2.07
2022-08-02T18:28:52.127Z,1.90
2022-08-02T18:34:01.888Z,2.03
2022-08-02T18:39:07.663Z,1.90
2022-08-02T18:44:10.943Z,1.97
2022-08-02T18:49:18.412Z,2.17
2022-08-02T18:54:30.727Z,1.93
2022-08-02T18:59:37.662Z,2.00
2022-08-02T19:04:43.692Z,2.47
2022-08-02T19:09:49.829Z,2.30
2022-08-02T19:14:52.325Z,2.30
2022-08-02T19:19:56.063Z,2.50
2022-08-02T19:25:01.198Z,2.50
2022-08-02T19:30:07.382Z,2.83
2022-08-02T19:35:19.404Z,3.17
2022-08-02T19:40:32.805Z,3.00
2022-08-02T19:45:49.810Z,3.07
2022-08-02T19:51:01.051Z,3.00
2022-08-02T19:56:04.510Z,3.63
2022-08-02T20:01:07.589Z,3.30
2022-08-02T20:06:17.670Z,3.03
2022-08-02T20:11:22.180Z,3.40
2022-08-02T20:16:27.867Z,3.60
2022-08-02T20:21:35.638Z,3.57
2022-08-02T20:26:47.663Z,3.53
2022-08-02T20:31:50.604Z,3.80
2022-08-02T20:36:54.058Z,3.80
2022-08-02T20:41:57.312Z,3.77
2022-08-02T20:47:01.520Z,3.70
2022-08-02T20:52:04.331Z,3.97
2022-08-02T20:57:36.224Z,3.90
2022-08-02T21:02:49.443Z,3.80
2022-08-02T21:07:53.383Z,4.00
2022-08-02T21:12:57.613Z,4.33
2022-08-02T21:18:06.949Z,4.13
2022-08-02T21:23:19.887Z,3.87
2022-08-02T21:28:22.706Z,3.60
2022-08-02T21:33:25.612Z,4.30
2022-08-02T21:38:35.380Z,4.10
2022-08-02T21:43:40.407Z,4.60
2022-08-02T21:48:46.413Z,4.17
2022-08-02T21:54:17.677Z,4.27
2022-08-02T21:59:15.525Z,4.37
2022-08-02T22:04:18.922Z,4.47
2022-08-02T22:09:44.685Z,4.40
2022-08-02T22:14:55.071Z,4.30
2022-08-02T22:19:58.178Z,3.90
2022-08-02T22:25:00.739Z,4.30
2022-08-02T22:30:07.254Z,4.50
2022-08-02T22:35:12.378Z,4.57
2022-08-02T22:40:15.083Z,4.50
2022-08-02T22:45:17.561Z,4.50
2022-08-02T22:50:20.540Z,4.50
2022-08-02T22:55:23.587Z,4.80
2022-08-02T22:58:37.237Z,1.77
2022-08-02T22:58:38.006Z,1.38
2022-08-02T23:00:26.768Z,4.30
2022-08-02T23:05:29.398Z,4.57
2022-08-02T23:10:31.879Z,4.70
2022-08-02T23:15:54.313Z,4.50
2022-08-02T23:20:56.914Z,4.40
2022-08-02T23:25:59.422Z,4.47
2022-08-02T23:31:33.963Z,4.83
2022-08-02T23:36:40.726Z,4.63
2022-08-02T23:41:43.305Z,5.10
2022-08-02T23:46:47.315Z,4.47
2022-08-02T23:51:51.345Z,4.40
2022-08-02T23:56:54.115Z,4.83
